Time;durP1;ratioP1;P1;durP2;ratioP2;P2;SDS_P1;SDS_P2;PMS_P1;PMS_P2;Temp;Humidity;BMP_temperature;BMP_pressure;BME280_temperature;BME280_humidity;BME280_pressure;Samples;Min_cycle;Max_cycle;Signal;HPM_P1;HPM_P2
2023/01/31 00:02:22;;;;;;;;;;;5.10;1.00;;;;;;4993912;28;19913;-88
2023/01/31 00:04:52;;;;;;;;;;;5.20;1.00;;;;;;4996179;28;19910;-88
2023/01/31 00:10:52;;;;;;;;;;;5.30;1.00;;;;;;5003616;28;19993;-88
2023/01/31 00:13:28;;;;;;;;;;;5.40;1.00;;;;;;5020784;28;19910;-88
2023/01/31 00:15:58;;;;;;;;;;;5.30;1.00;;;;;;4995453;28;19927;-87
2023/01/31 00:24:40;;;;;;;;;;;5.40;1.00;;;;;;5013759;28;20272;-76
2023/01/31 00:27:07;;;;;;;;;;;5.30;1.00;;;;;;4997935;28;19921;-76
2023/01/31 00:29:32;;;;;;;;;;;5.30;1.00;;;;;;5000403;28;19921;-76
2023/01/31 00:31:58;;;;;;;;;;;5.20;1.00;;;;;;5009428;28;19909;-75
2023/01/31 00:34:24;;;;;;;;;;;5.20;1.00;;;;;;5005260;28;19913;-76
2023/01/31 00:36:49;;;;;;;;;;;5.10;1.00;;;;;;5004806;28;19910;-75
2023/01/31 00:39:16;;;;;;;;;;;5.10;1.00;;;;;;5003760;28;19937;-75
2023/01/31 00:41:41;;;;;;;;;;;5.00;1.00;;;;;;4982824;28;19910;-87
2023/01/31 00:44:10;;;;;;;;;;;4.90;1.00;;;;;;4998717;28;19980;-89
2023/01/31 00:46:46;;;;;;;;;;;5.00;1.00;;;;;;4998289;28;19909;-88
2023/01/31 00:52:34;;;;;;;;;;;4.90;1.00;;;;;;5009254;28;19916;-88
2023/01/31 00:58:10;;;;;;;;;;;4.80;1.00;;;;;;4997399;28;19925;-88
2023/01/31 01:00:52;;;;;;;;;;;4.70;1.00;;;;;;5013658;28;19916;-88
2023/01/31 01:03:52;;;;;;;;;;;4.60;1.00;;;;;;5017583;28;19913;-87
2023/01/31 01:09:40;;;;;;;;;;;4.60;1.00;;;;;;5009395;28;19917;-87
2023/01/31 01:12:10;;;;;;;;;;;4.60;1.00;;;;;;5023288;28;19914;-75
2023/01/31 01:14:40;;;;;;;;;;;4.50;1.00;;;;;;4996150;28;19949;-75
2023/01/31 01:17:16;;;;;;;;;;;4.60;1.00;;;;;;5009390;28;19920;-75
2023/01/31 01:19:41;;;;;;;;;;;4.60;1.00;;;;;;5014497;28;19949;-75
2023/01/31 01:22:14;;;;;;;;;;;4.50;1.00;;;;;;5002998;28;19968;-76
2023/01/31 01:24:43;;;;;;;;;;;4.50;1.00;;;;;;5016438;28;19909;-75
2023/01/31 01:27:09;;;;;;;;;;;4.40;1.00;;;;;;5009336;28;20001;-76
2023/01/31 01:29:35;;;;;;;;;;;4.40;1.00;;;;;;4993270;28;19988;-75
2023/01/31 01:32:00;;;;;;;;;;;4.40;1.00;;;;;;5006779;28;19910;-75
2023/01/31 01:34:26;;;;;;;;;;;4.40;1.00;;;;;;5005425;28;19933;-75
2023/01/31 01:36:51;;;;;;;;;;;4.40;1.00;;;;;;5015942;28;19955;-75
2023/01/31 01:39:18;;;;;;;;;;;4.50;1.00;;;;;;5015593;28;19913;-75
2023/01/31 01:41:43;;;;;;;;;;;4.40;1.00;;;;;;4986091;28;20016;-76
2023/01/31 01:44:28;;;;;;;;;;;4.40;1.00;;;;;;5002814;28;20559;-76
2023/01/31 01:46:58;;;;;;;;;;;4.40;1.00;;;;;;5006142;28;19914;-75
2023/01/31 01:49:32;;;;;;;;;;;4.30;1.00;;;;;;5009643;28;19920;-76
2023/01/31 01:51:59;;;;;;;;;;;4.40;1.00;;;;;;5012584;28;19909;-75
2023/01/31 01:54:35;;;;;;;;;;;4.40;1.00;;;;;;5003759;28;19913;-76
2023/01/31 01:57:10;;;;;;;;;;;4.40;1.00;;;;;;5015896;28;19917;-76
2023/01/31 01:59:50;;;;;;;;;;;4.30;1.00;;;;;;5008209;28;19910;-75
2023/01/31 02:02:22;;;;;;;;;;;4.30;1.00;;;;;;4999611;28;20058;-75
2023/01/31 02:04:52;;;;;;;;;;;4.30;1.00;;;;;;5015283;28;19992;-75
2023/01/31 02:07:18;;;;;;;;;;;4.30;1.00;;;;;;5011262;28;20034;-76
2023/01/31 02:09:56;;;;;;;;;;;4.20;1.00;;;;;;5006812;28;19953;-76
2023/01/31 02:12:23;;;;;;;;;;;4.20;1.00;;;;;;4997235;28;19909;-75
2023/01/31 02:14:49;;;;;;;;;;;4.10;1.00;;;;;;4996986;28;19914;-75
2023/01/31 02:17:22;;;;;;;;;;;4.00;1.00;;;;;;5011270;28;20257;-76
2023/01/31 02:20:03;;;;;;;;;;;3.90;1.00;;;;;;5014070;28;19914;-75
2023/01/31 02:22:35;;;;;;;;;;;3.90;1.00;;;;;;5006393;28;19910;-75
2023/01/31 02:25:12;;;;;;;;;;;3.90;1.00;;;;;;4998626;28;19909;-75
2023/01/31 02:31:10;;;;;;;;;;;3.80;1.00;;;;;;4997252;28;19917;-87
2023/01/31 02:33:46;;;;;;;;;;;3.70;1.00;;;;;;4996326;28;20357;-87
2023/01/31 02:39:52;;;;;;;;;;;3.70;1.00;;;;;;4996133;28;19921;-87
2023/01/31 02:42:26;;;;;;;;;;;3.70;1.00;;;;;;5018310;28;19922;-87
2023/01/31 02:45:03;;;;;;;;;;;3.80;1.00;;;;;;5028969;28;20480;-87
2023/01/31 02:47:41;;;;;;;;;;;3.70;1.00;;;;;;4983830;28;20006;-87
2023/01/31 02:50:13;;;;;;;;;;;3.70;1.00;;;;;;4995751;28;20361;-87
2023/01/31 02:56:18;;;;;;;;;;;3.60;1.00;;;;;;5015237;28;19952;-83
2023/01/31 03:02:10;;;;;;;;;;;3.50;1.00;;;;;;5004673;28;19924;-87
2023/01/31 03:04:41;;;;;;;;;;;3.50;1.00;;;;;;5010942;28;19910;-87
2023/01/31 03:07:12;;;;;;;;;;;3.40;1.00;;;;;;4991175;28;20511;-87
2023/01/31 03:09:40;;;;;;;;;;;3.30;1.00;;;;;;5005343;28;20404;-87
2023/01/31 03:12:29;;;;;;;;;;;3.30;1.00;;;;;;5017882;28;20284;-75
2023/01/31 03:15:16;;;;;;;;;;;3.30;1.00;;;;;;5000797;28;20369;-75
2023/01/31 03:17:48;;;;;;;;;;;3.30;1.00;;;;;;5019005;28;19964;-76
2023/01/31 03:20:17;;;;;;;;;;;3.40;1.00;;;;;;5003006;28;20316;-76
2023/01/31 03:23:03;;;;;;;;;;;3.60;1.00;;;;;;5005372;28;20345;-76
2023/01/31 03:25:35;;;;;;;;;;;3.70;1.00;;;;;;5001870;28;19910;-76
2023/01/31 03:28:05;;;;;;;;;;;3.70;1.00;;;;;;5013544;28;19945;-75
2023/01/31 03:30:40;;;;;;;;;;;3.80;1.00;;;;;;5002674;28;19913;-75
2023/01/31 03:33:28;;;;;;;;;;;3.80;1.00;;;;;;4995213;28;19921;-76
2023/01/31 03:36:14;;;;;;;;;;;3.90;1.00;;;;;;5010315;28;19924;-76
2023/01/31 03:38:51;;;;;;;;;;;3.90;1.00;;;;;;5009478;28;20253;-76
2023/01/31 03:41:27;;;;;;;;;;;3.90;1.00;;;;;;5007937;28;19948;-87
2023/01/31 03:44:00;;;;;;;;;;;3.90;1.00;;;;;;5001266;28;20355;-87
2023/01/31 03:46:43;;;;;;;;;;;3.90;1.00;;;;;;5014909;28;20282;-87
2023/01/31 03:49:24;;;;;;;;;;;3.90;1.00;;;;;;5008216;28;19913;-87
2023/01/31 03:52:10;;;;;;;;;;;3.90;1.00;;;;;;4996725;28;19964;-88
2023/01/31 03:54:54;;;;;;;;;;;3.90;1.00;;;;;;5013752;28;19927;-87
2023/01/31 03:57:24;;;;;;;;;;;3.90;1.00;;;;;;4989277;28;19918;-75
2023/01/31 03:59:54;;;;;;;;;;;4.00;1.00;;;;;;5003360;28;19921;-76
2023/01/31 04:02:22;;;;;;;;;;;4.00;1.00;;;;;;4993872;28;19916;-75
2023/01/31 04:04:54;;;;;;;;;;;3.90;1.00;;;;;;5002426;28;20362;-75
2023/01/31 04:07:23;;;;;;;;;;;3.90;1.00;;;;;;5010049;28;20268;-76
2023/01/31 04:09:52;;;;;;;;;;;3.90;1.00;;;;;;5004649;28;19913;-76
2023/01/31 04:12:22;;;;;;;;;;;3.90;1.00;;;;;;5014453;28;20000;-87
2023/01/31 04:14:58;;;;;;;;;;;3.90;1.00;;;;;;5013912;28;19913;-87
2023/01/31 04:17:40;;;;;;;;;;;3.90;1.00;;;;;;5013619;28;19922;-88
2023/01/31 04:20:22;;;;;;;;;;;3.80;1.00;;;;;;5007613;28;19920;-87
2023/01/31 04:22:58;;;;;;;;;;;3.80;1.00;;;;;;5014442;28;19924;-87
2023/01/31 04:25:52;;;;;;;;;;;3.70;1.00;;;;;;4996712;28;19914;-87
2023/01/31 04:31:52;;;;;;;;;;;3.70;1.00;;;;;;4998205;28;19921;-87
2023/01/31 04:34:28;;;;;;;;;;;3.60;1.00;;;;;;4994610;28;19922;-87
2023/01/31 04:37:10;;;;;;;;;;;3.60;1.00;;;;;;4994723;28;19961;-87
2023/01/31 04:39:52;;;;;;;;;;;3.50;1.00;;;;;;5005210;28;19951;-87
2023/01/31 04:42:17;;;;;;;;;;;3.50;1.00;;;;;;5014245;28;19918;-75
2023/01/31 04:44:43;;;;;;;;;;;3.40;1.00;;;;;;5000340;28;19918;-76
2023/01/31 04:47:09;;;;;;;;;;;3.30;1.00;;;;;;5001872;28;19957;-75
2023/01/31 04:49:40;;;;;;;;;;;3.30;1.00;;;;;;5008007;28;19909;-76
2023/01/31 04:52:34;;;;;;;;;;;3.30;1.00;;;;;;5017070;28;19909;-76
2023/01/31 04:55:11;;;;;;;;;;;3.20;1.00;;;;;;5008432;28;19917;-76
2023/01/31 04:57:36;;;;;;;;;;;3.00;1.00;;;;;;5010349;28;19917;-76
2023/01/31 05:00:04;;;;;;;;;;;3.00;1.00;;;;;;5015862;28;20468;-76
2023/01/31 05:02:34;;;;;;;;;;;2.90;1.00;;;;;;5009976;28;20010;-75
2023/01/31 05:05:00;;;;;;;;;;;2.80;1.00;;;;;;5007268;28;19913;-76
2023/01/31 05:07:28;;;;;;;;;;;2.80;1.00;;;;;;5013495;28;20408;-76
2023/01/31 05:09:53;;;;;;;;;;;2.60;1.00;;;;;;4996741;28;19920;-75
2023/01/31 05:12:22;;;;;;;;;;;2.50;1.00;;;;;;5009862;28;19997;-76
2023/01/31 05:14:58;;;;;;;;;;;2.40;1.00;;;;;;5012287;28;19910;-76
2023/01/31 05:17:25;;;;;;;;;;;2.30;1.00;;;;;;5003902;28;19917;-76
2023/01/31 05:19:51;;;;;;;;;;;2.20;1.00;;;;;;5015033;28;19914;-76
2023/01/31 05:22:22;;;;;;;;;;;2.20;1.00;;;;;;5003888;28;19929;-76
2023/01/31 05:25:04;;;;;;;;;;;2.10;1.00;;;;;;5014841;28;19924;-76
2023/01/31 05:27:34;;;;;;;;;;;2.00;1.00;;;;;;4999787;28;19921;-75
2023/01/31 05:30:05;;;;;;;;;;;1.90;1.00;;;;;;5015052;28;19913;-76
2023/01/31 05:32:30;;;;;;;;;;;1.80;1.00;;;;;;5016481;28;19917;-76
2023/01/31 05:34:58;;;;;;;;;;;1.70;1.00;;;;;;5011434;28;19913;-76
2023/01/31 05:37:24;;;;;;;;;;;1.70;1.00;;;;;;4999955;28;19929;-75
2023/01/31 05:39:49;;;;;;;;;;;1.60;1.00;;;;;;5001983;28;20261;-76
2023/01/31 05:42:15;;;;;;;;;;;1.60;1.00;;;;;;5005612;28;20005;-84
2023/01/31 05:44:52;;;;;;;;;;;1.60;1.00;;;;;;4995933;28;19914;-84
2023/01/31 05:47:23;;;;;;;;;;;1.50;1.00;;;;;;5024910;28;19945;-84
2023/01/31 05:49:58;;;;;;;;;;;1.40;1.00;;;;;;4998573;28;19976;-84
2023/01/31 05:52:28;;;;;;;;;;;1.40;1.00;;;;;;5014046;28;20340;-84
2023/01/31 05:54:58;;;;;;;;;;;1.30;1.00;;;;;;4987528;28;19948;-84
2023/01/31 05:57:34;;;;;;;;;;;1.30;1.00;;;;;;4998511;28;19964;-84
2023/01/31 06:00:10;;;;;;;;;;;1.30;1.00;;;;;;4978791;28;19914;-84
2023/01/31 06:02:40;;;;;;;;;;;1.20;1.00;;;;;;4997393;28;19910;-84
2023/01/31 06:05:06;;;;;;;;;;;1.20;1.00;;;;;;5011971;28;19914;-85
2023/01/31 06:07:46;;;;;;;;;;;1.10;1.00;;;;;;5002991;28;19953;-85
2023/01/31 06:10:12;;;;;;;;;;;1.10;1.00;;;;;;5015486;28;19913;-84
2023/01/31 06:12:40;;;;;;;;;;;1.00;1.00;;;;;;4988982;28;19913;-83
2023/01/31 06:15:10;;;;;;;;;;;0.90;1.00;;;;;;4988720;28;19910;-85
2023/01/31 06:17:40;;;;;;;;;;;0.80;1.00;;;;;;5019265;28;20328;-84
2023/01/31 06:20:10;;;;;;;;;;;0.80;1.00;;;;;;4980241;28;19914;-84
2023/01/31 06:22:40;;;;;;;;;;;0.80;1.00;;;;;;4978020;28;19921;-84
2023/01/31 06:25:22;;;;;;;;;;;0.80;1.00;;;;;;5024082;28;19909;-85
2023/01/31 06:30:52;;;;;;;;;;;0.70;1.00;;;;;;5008028;28;20430;-84
2023/01/31 06:33:52;;;;;;;;;;;0.70;1.00;;;;;;4995705;28;19913;-84
2023/01/31 06:36:18;;;;;;;;;;;0.70;1.00;;;;;;5017359;28;19913;-84
2023/01/31 06:38:58;;;;;;;;;;;0.80;1.00;;;;;;4995534;28;20510;-84
2023/01/31 06:41:26;;;;;;;;;;;0.90;1.00;;;;;;4983179;28;20421;-85
2023/01/31 06:44:16;;;;;;;;;;;0.90;1.00;;;;;;5021770;28;20067;-76
2023/01/31 06:46:46;;;;;;;;;;;1.00;1.90;;;;;;5009491;28;19914;-76
2023/01/31 06:49:24;;;;;;;;;;;1.20;3.30;;;;;;5008490;28;20008;-76
2023/01/31 06:51:52;;;;;;;;;;;1.30;1.60;;;;;;5014236;28;19916;-76
2023/01/31 06:54:24;;;;;;;;;;;1.40;1.00;;;;;;4997991;28;19910;-76
2023/01/31 06:56:51;;;;;;;;;;;1.50;1.00;;;;;;5005206;28;19916;-76
2023/01/31 06:59:22;;;;;;;;;;;1.70;4.20;;;;;;5014832;28;19916;-76
2023/01/31 07:01:58;;;;;;;;;;;1.80;1.00;;;;;;5014868;28;20000;-77
2023/01/31 07:04:46;;;;;;;;;;;1.90;1.00;;;;;;5014367;28;19914;-76
2023/01/31 07:07:11;;;;;;;;;;;2.00;1.00;;;;;;5008786;28;19920;-76
2023/01/31 07:09:37;;;;;;;;;;;2.10;1.00;;;;;;4990360;28;20000;-76
2023/01/31 07:12:03;;;;;;;;;;;2.20;1.00;;;;;;4999886;28;20284;-76
2023/01/31 07:14:52;;;;;;;;;;;2.20;1.00;;;;;;5003363;28;19917;-85
2023/01/31 07:17:19;;;;;;;;;;;2.30;1.00;;;;;;5014922;28;20008;-86
2023/01/31 07:19:52;;;;;;;;;;;2.30;1.00;;;;;;5001593;28;20012;-87
2023/01/31 07:22:22;;;;;;;;;;;2.30;1.00;;;;;;5002903;28;19998;-87
2023/01/31 07:24:58;;;;;;;;;;;2.20;1.00;;;;;;5001487;28;19910;-88
2023/01/31 07:30:27;;;;;;;;;;;2.20;1.00;;;;;;5006679;28;20387;-77
2023/01/31 07:33:04;;;;;;;;;;;2.20;1.00;;;;;;5007877;28;19910;-76
2023/01/31 07:35:40;;;;;;;;;;;2.20;1.00;;;;;;4994831;28;19914;-77
2023/01/31 07:38:06;;;;;;;;;;;2.30;1.00;;;;;;5009616;28;19966;-76
2023/01/31 07:40:32;;;;;;;;;;;2.40;1.00;;;;;;5018910;28;20000;-77
2023/01/31 07:42:58;;;;;;;;;;;2.50;1.00;;;;;;5007302;28;19985;-78
2023/01/31 07:45:52;;;;;;;;;;;2.60;1.00;;;;;;5009195;28;20051;-87
2023/01/31 07:48:22;;;;;;;;;;;2.70;1.00;;;;;;5029984;28;19930;-88
2023/01/31 07:50:56;;;;;;;;;;;2.90;1.00;;;;;;4982508;28;19975;-87
2023/01/31 07:53:52;;;;;;;;;;;3.00;1.00;;;;;;5014654;28;19909;-87
2023/01/31 07:56:22;;;;;;;;;;;3.20;1.00;;;;;;5007565;28;19910;-87
2023/01/31 07:59:22;;;;;;;;;;;3.40;1.00;;;;;;4985176;28;19913;-87
2023/01/31 08:07:40;;;;;;;;;;;3.80;1.00;;;;;;5001327;28;19920;-87
2023/01/31 08:10:22;;;;;;;;;;;3.80;1.00;;;;;;4996569;28;19925;-87
2023/01/31 08:16:16;;;;;;;;;;;3.80;1.00;;;;;;4995174;28;19957;-86
2023/01/31 08:18:41;;;;;;;;;;;3.90;1.00;;;;;;5010518;28;19918;-87
2023/01/31 08:21:22;;;;;;;;;;;3.90;1.00;;;;;;5005629;28;19960;-87
2023/01/31 08:23:52;;;;;;;;;;;4.00;1.00;;;;;;5023611;28;20299;-88
2023/01/31 08:26:28;;;;;;;;;;;3.80;1.00;;;;;;4979214;28;19960;-86
2023/01/31 08:29:23;;;;;;;;;;;3.80;1.00;;;;;;4984117;28;19914;-86
2023/01/31 08:31:52;;;;;;;;;;;3.80;1.00;;;;;;5013882;28;20389;-87
2023/01/31 08:37:22;;;;;;;;;;;3.70;1.00;;;;;;5012519;28;19963;-86
2023/01/31 08:40:22;;;;;;;;;;;3.80;1.00;;;;;;5020167;28;19909;-88
2023/01/31 08:43:22;;;;;;;;;;;3.80;1.00;;;;;;5019997;28;20387;-88
2023/01/31 08:45:52;;;;;;;;;;;3.70;1.00;;;;;;5006816;28;19913;-77
2023/01/31 08:48:30;;;;;;;;;;;3.70;1.00;;;;;;5004616;28;19964;-76
2023/01/31 08:54:16;;;;;;;;;;;3.70;1.00;;;;;;4997333;28;19933;-76
2023/01/31 08:56:46;;;;;;;;;;;3.60;1.00;;;;;;4997421;28;19925;-76
2023/01/31 08:59:22;;;;;;;;;;;3.60;1.00;;;;;;5010734;28;19921;-77
2023/01/31 09:01:48;;;;;;;;;;;3.60;1.00;;;;;;5016468;28;19913;-76
2023/01/31 09:04:13;;;;;;;;;;;3.60;1.00;;;;;;5012211;28;19909;-76
2023/01/31 09:06:46;;;;;;;;;;;3.60;1.00;;;;;;4997250;28;19972;-77
2023/01/31 09:09:16;;;;;;;;;;;3.70;1.00;;;;;;4992649;28;19910;-76
2023/01/31 09:11:46;;;;;;;;;;;3.60;1.00;;;;;;4983523;28;19949;-77
2023/01/31 09:14:12;;;;;;;;;;;3.70;1.00;;;;;;5002757;28;20481;-84
2023/01/31 09:16:37;;;;;;;;;;;3.80;1.00;;;;;;4979949;28;19956;-76
2023/01/31 09:19:03;;;;;;;;;;;3.70;1.00;;;;;;5004045;28;20269;-76
2023/01/31 09:21:29;;;;;;;;;;;3.70;1.00;;;;;;5014020;28;19920;-76
2023/01/31 09:24:01;;;;;;;;;;;3.80;1.00;;;;;;5016441;28;19968;-76
2023/01/31 09:26:28;;;;;;;;;;;3.80;1.00;;;;;;5010981;28;20443;-76
2023/01/31 09:28:56;;;;;;;;;;;3.80;1.00;;;;;;5011976;28;20471;-76
2023/01/31 09:31:22;;;;;;;;;;;3.80;1.00;;;;;;4999938;28;20004;-87
2023/01/31 09:34:22;;;;;;;;;;;3.90;1.00;;;;;;5015677;28;20327;-87
2023/01/31 09:39:50;;;;;;;;;;;3.90;1.00;;;;;;5010150;28;19936;-87
2023/01/31 09:42:18;;;;;;;;;;;3.80;1.00;;;;;;5005253;28;20385;-88
2023/01/31 09:45:12;;;;;;;;;;;3.80;1.00;;;;;;4999505;28;19964;-83
2023/01/31 09:47:41;;;;;;;;;;;3.90;1.00;;;;;;5011463;28;20340;-76
2023/01/31 09:50:17;;;;;;;;;;;4.00;1.00;;;;;;5003797;28;19909;-76
2023/01/31 09:52:46;;;;;;;;;;;4.00;1.00;;;;;;5009441;28;19916;-76
2023/01/31 09:55:31;;;;;;;;;;;4.00;1.00;;;;;;5011473;28;19910;-76
2023/01/31 09:58:02;;;;;;;;;;;4.00;1.00;;;;;;4998620;28;19921;-76
2023/01/31 10:01:00;;;;;;;;;;;4.20;1.00;;;;;;5016076;28;19953;-87
2023/01/31 10:03:52;;;;;;;;;;;4.20;1.00;;;;;;4921133;29;20310;-87
2023/01/31 10:06:42;;;;;;;;;;;4.20;1.00;;;;;;4937332;29;19934;-89
2023/01/31 10:12:42;;;;;;;;;;;4.30;1.00;;;;;;4936806;29;20389;-84
2023/01/31 10:18:25;;;;;;;;;;;4.50;1.00;;;;;;4935216;29;19982;-89
2023/01/31 10:21:22;;;;;;;;;;;4.40;1.00;;;;;;4944172;29;19921;-89
2023/01/31 10:23:59;;;;;;;;;;;4.40;1.00;;;;;;4935873;29;19910;-89
2023/01/31 10:26:36;;;;;;;;;;;4.40;1.00;;;;;;4930009;29;19959;-90
2023/01/31 10:29:26;;;;;;;;;;;4.40;1.00;;;;;;4920665;29;19950;-89
2023/01/31 10:31:57;;;;;;;;;;;4.40;1.00;;;;;;4951274;29;19926;-77
2023/01/31 10:34:28;;;;;;;;;;;4.30;1.00;;;;;;4935649;29;19910;-78
2023/01/31 10:37:10;;;;;;;;;;;4.40;1.00;;;;;;4935727;29;19920;-78
2023/01/31 10:39:45;;;;;;;;;;;4.60;1.00;;;;;;4982896;28;20402;-77
2023/01/31 10:42:14;;;;;;;;;;;4.70;1.00;;;;;;4997481;28;19940;-77
2023/01/31 10:44:53;;;;;;;;;;;4.80;1.00;;;;;;5000436;28;19914;-78
2023/01/31 10:47:42;;;;;;;;;;;4.80;1.00;;;;;;4983849;28;19959;-75
2023/01/31 10:50:18;;;;;;;;;;;4.80;1.00;;;;;;4970936;28;20388;-75
2023/01/31 10:53:02;;;;;;;;;;;4.70;1.00;;;;;;4956818;28;19957;-75
2023/01/31 10:55:32;;;;;;;;;;;4.60;1.00;;;;;;4955091;28;19930;-75
2023/01/31 10:57:57;;;;;;;;;;;4.80;1.00;;;;;;4957281;28;19914;-75
2023/01/31 11:00:52;;;;;;;;;;;4.90;1.00;;;;;;4959753;28;19915;-86
2023/01/31 11:03:22;;;;;;;;;;;5.10;1.00;;;;;;4971238;28;19910;-87
2023/01/31 11:06:22;;;;;;;;;;;5.20;1.00;;;;;;4974532;28;19917;-87
2023/01/31 11:08:55;;;;;;;;;;;5.20;1.00;;;;;;4961724;28;19970;-86
2023/01/31 11:11:28;;;;;;;;;;;5.20;1.00;;;;;;4966261;28;20012;-89
2023/01/31 11:13:58;;;;;;;;;;;5.10;1.00;;;;;;4960568;28;19921;-86
2023/01/31 11:16:44;;;;;;;;;;;5.00;1.00;;;;;;4955159;28;19997;-74
2023/01/31 11:19:16;;;;;;;;;;;5.00;1.00;;;;;;4958914;28;19950;-75
2023/01/31 11:21:53;;;;;;;;;;;5.10;1.00;;;;;;4969563;28;20313;-74
2023/01/31 11:24:23;;;;;;;;;;;5.10;1.00;;;;;;4953944;29;19911;-75
2023/01/31 11:26:54;;;;;;;;;;;5.10;1.00;;;;;;4981607;28;20310;-76
2023/01/31 11:29:26;;;;;;;;;;;5.10;1.00;;;;;;5006859;28;19910;-75
2023/01/31 11:31:52;;;;;;;;;;;5.10;1.00;;;;;;5001648;28;20354;-75
2023/01/31 11:34:23;;;;;;;;;;;5.10;1.00;;;;;;4999698;28;19914;-75
2023/01/31 11:36:53;;;;;;;;;;;5.10;1.00;;;;;;5014074;28;19917;-75
2023/01/31 11:39:22;;;;;;;;;;;5.30;1.00;;;;;;5000050;28;20320;-75
2023/01/31 11:41:48;;;;;;;;;;;5.20;1.00;;;;;;4994742;28;19928;-78
2023/01/31 11:44:17;;;;;;;;;;;5.30;1.00;;;;;;4995675;28;20420;-75
2023/01/31 11:46:52;;;;;;;;;;;5.40;1.00;;;;;;5003008;28;19921;-90
2023/01/31 11:49:52;;;;;;;;;;;5.40;1.00;;;;;;5015719;28;19917;-89
2023/01/31 11:52:20;;;;;;;;;;;5.40;1.00;;;;;;4996732;28;19917;-89
2023/01/31 11:55:22;;;;;;;;;;;5.40;1.00;;;;;;5030239;28;19909;-89
2023/01/31 11:58:24;;;;;;;;;;;5.30;1.00;;;;;;5009124;28;19918;-89
2023/01/31 12:01:01;;;;;;;;;;;5.40;1.00;;;;;;4976579;28;19910;-77
2023/01/31 12:09:40;;;;;;;;;;;5.70;1.00;;;;;;4963353;28;19930;-89
2023/01/31 12:12:26;;;;;;;;;;;5.80;1.00;;;;;;4976156;28;19910;-90
2023/01/31 12:14:54;;;;;;;;;;;5.70;1.00;;;;;;4960067;28;19930;-88
2023/01/31 12:17:22;;;;;;;;;;;5.80;1.00;;;;;;4962707;28;19914;-76
2023/01/31 12:19:58;;;;;;;;;;;5.60;1.00;;;;;;4957235;28;19949;-77
2023/01/31 12:22:35;;;;;;;;;;;5.70;1.00;;;;;;4960626;28;19915;-77
2023/01/31 12:25:11;;;;;;;;;;;5.60;1.00;;;;;;4969070;28;19921;-77
2023/01/31 12:27:39;;;;;;;;;;;5.60;1.00;;;;;;4942879;29;20380;-78
2023/01/31 12:30:21;;;;;;;;;;;5.50;1.00;;;;;;4961770;28;20281;-78
2023/01/31 12:33:04;;;;;;;;;;;5.60;1.00;;;;;;4975890;28;19910;-78
2023/01/31 12:35:34;;;;;;;;;;;5.60;1.00;;;;;;4998247;28;19909;-77
2023/01/31 12:38:10;;;;;;;;;;;5.60;1.00;;;;;;5004235;28;19913;-77
2023/01/31 12:40:40;;;;;;;;;;;5.70;1.00;;;;;;5005818;28;20020;-78
2023/01/31 12:43:19;;;;;;;;;;;5.70;1.00;;;;;;4994382;28;20352;-77
2023/01/31 12:45:52;;;;;;;;;;;5.70;1.00;;;;;;5010936;28;19944;-78
2023/01/31 12:51:22;;;;;;;;;;;5.70;1.00;;;;;;5017599;28;19916;-89
2023/01/31 12:57:16;;;;;;;;;;;5.60;1.00;;;;;;5000339;28;20890;-89
2023/01/31 13:00:06;;;;;;;;;;;5.60;1.00;;;;;;5017533;28;19921;-91
2023/01/31 13:02:52;;;;;;;;;;;5.60;1.00;;;;;;5017812;28;19910;-90
2023/01/31 13:05:52;;;;;;;;;;;5.50;1.00;;;;;;5017622;28;19956;-91
2023/01/31 13:08:22;;;;;;;;;;;5.60;1.00;;;;;;5017555;28;19916;-90
2023/01/31 13:11:06;;;;;;;;;;;5.70;1.00;;;;;;4996993;28;20281;-89
2023/01/31 13:13:52;;;;;;;;;;;5.60;1.00;;;;;;5013307;28;19916;-89
2023/01/31 13:16:28;;;;;;;;;;;5.70;1.00;;;;;;5013043;28;19918;-89
2023/01/31 13:19:06;;;;;;;;;;;5.70;1.00;;;;;;5017257;28;19913;-77
2023/01/31 13:21:38;;;;;;;;;;;5.60;1.00;;;;;;5002162;28;19960;-77
2023/01/31 13:24:16;;;;;;;;;;;5.70;1.00;;;;;;4997142;28;19910;-77
2023/01/31 13:26:55;;;;;;;;;;;5.70;1.00;;;;;;5006041;28;20386;-77
2023/01/31 13:29:40;;;;;;;;;;;5.70;1.00;;;;;;4991576;28;20337;-77
2023/01/31 13:32:41;;;;;;;;;;;5.70;1.00;;;;;;5031910;28;19909;-77
2023/01/31 13:35:27;;;;;;;;;;;5.80;1.00;;;;;;4956108;28;20437;-77
2023/01/31 13:38:10;;;;;;;;;;;5.80;1.00;;;;;;4941486;28;19958;-77
2023/01/31 13:40:48;;;;;;;;;;;5.90;1.00;;;;;;4964056;28;19986;-77
2023/01/31 13:43:17;;;;;;;;;;;5.90;1.00;;;;;;4974396;28;19918;-77
2023/01/31 13:45:51;;;;;;;;;;;5.90;1.00;;;;;;4958824;28;19920;-78
2023/01/31 13:48:22;;;;;;;;;;;5.90;1.00;;;;;;4956070;29;20017;-75
2023/01/31 13:50:56;;;;;;;;;;;6.10;1.00;;;;;;4957113;28;20423;-77
2023/01/31 13:53:26;;;;;;;;;;;6.10;1.00;;;;;;4965869;28;20408;-77
2023/01/31 13:55:52;;;;;;;;;;;6.00;1.00;;;;;;4939459;29;19911;-78
2023/01/31 13:58:27;;;;;;;;;;;6.00;1.00;;;;;;4940009;28;20259;-77
2023/01/31 14:01:15;;;;;;;;;;;6.00;1.00;;;;;;4968357;28;19936;-78
2023/01/31 14:04:17;;;;;;;;;;;5.90;1.00;;;;;;4950578;28;20009;-77
2023/01/31 14:09:46;;;;;;;;;;;6.20;1.00;;;;;;4956084;28;19937;-78
2023/01/31 14:15:35;;;;;;;;;;;6.30;1.00;;;;;;5015532;28;20392;-77
2023/01/31 14:18:01;;;;;;;;;;;6.20;1.00;;;;;;4963745;28;20487;-77
2023/01/31 14:20:29;;;;;;;;;;;6.20;1.00;;;;;;4959470;28;19921;-78
2023/01/31 14:23:22;;;;;;;;;;;6.10;1.00;;;;;;4954957;28;20266;-79
2023/01/31 14:25:52;;;;;;;;;;;6.00;1.00;;;;;;4958611;28;19930;-78
2023/01/31 14:28:28;;;;;;;;;;;5.80;1.00;;;;;;4963257;28;19960;-78
2023/01/31 14:31:09;;;;;;;;;;;5.80;1.00;;;;;;4958239;28;19950;-77
2023/01/31 14:34:04;;;;;;;;;;;5.70;1.00;;;;;;4963149;28;20009;-88
2023/01/31 14:45:49;;;;;;;;;;;5.70;1.00;;;;;;4971828;28;19929;-87
2023/01/31 14:48:37;;;;;;;;;;;5.60;1.00;;;;;;4961171;28;20008;-79
2023/01/31 14:51:22;;;;;;;;;;;5.50;1.00;;;;;;4972670;28;20298;-77
2023/01/31 14:54:06;;;;;;;;;;;5.50;1.00;;;;;;4959345;28;19915;-78
2023/01/31 14:56:52;;;;;;;;;;;5.40;2.40;;;;;;5010626;28;20428;-78
2023/01/31 14:59:21;;;;;;;;;;;5.40;10.20;;;;;;5012645;28;19917;-78
2023/01/31 15:01:46;;;;;;;;;;;5.40;14.20;;;;;;5007746;28;20358;-78
2023/01/31 15:04:21;;;;;;;;;;;5.30;19.50;;;;;;5014687;28;19910;-78
2023/01/31 15:06:48;;;;;;;;;;;5.20;28.50;;;;;;5029881;28;20281;-78
2023/01/31 15:09:25;;;;;;;;;;;5.20;38.80;;;;;;5006327;28;20005;-78
2023/01/31 15:11:54;;;;;;;;;;;5.20;39.00;;;;;;5000999;28;19914;-78
2023/01/31 15:14:25;;;;;;;;;;;5.20;38.80;;;;;;4994828;28;20045;-78
2023/01/31 15:23:07;;;;;;;;;;;5.20;38.70;;;;;;4996955;28;20389;-82
2023/01/31 15:25:44;;;;;;;;;;;5.30;38.80;;;;;;4997188;28;19917;-74
2023/01/31 15:28:14;;;;;;;;;;;5.30;38.90;;;;;;5005741;28;20431;-75
2023/01/31 15:30:40;;;;;;;;;;;5.30;39.00;;;;;;4994469;28;19956;-70
2023/01/31 15:33:15;;;;;;;;;;;5.30;38.90;;;;;;4995578;28;19914;-71
2023/01/31 15:35:50;;;;;;;;;;;5.30;38.90;;;;;;5002033;28;19960;-72
2023/01/31 15:38:22;;;;;;;;;;;5.30;38.90;;;;;;5006389;28;19937;-71
2023/01/31 15:41:03;;;;;;;;;;;5.30;39.10;;;;;;5020029;28;20281;-71
2023/01/31 15:43:29;;;;;;;;;;;5.30;38.90;;;;;;5004327;28;19921;-71
2023/01/31 15:45:55;;;;;;;;;;;5.30;38.90;;;;;;4996370;28;19922;-73
2023/01/31 15:48:21;;;;;;;;;;;5.30;39.00;;;;;;5011310;28;20376;-74
2023/01/31 15:50:57;;;;;;;;;;;5.40;39.00;;;;;;5007238;28;19917;-79
2023/01/31 15:53:24;;;;;;;;;;;5.40;39.00;;;;;;5011846;28;19909;-78
2023/01/31 15:56:01;;;;;;;;;;;5.40;39.00;;;;;;4986613;28;19917;-79
2023/01/31 15:58:29;;;;;;;;;;;5.40;33.40;;;;;;5000093;28;20281;-79
2023/01/31 16:00:59;;;;;;;;;;;5.40;33.00;;;;;;4982654;28;19918;-78
2023/01/31 16:03:41;;;;;;;;;;;5.50;27.80;;;;;;4997195;28;19918;-79
2023/01/31 16:09:21;;;;;;;;;;;5.40;30.70;;;;;;4999767;28;19963;-80
2023/01/31 16:12:04;;;;;;;;;;;5.50;27.50;;;;;;5002630;28;19961;-80
2023/01/31 16:14:47;;;;;;;;;;;5.40;25.20;;;;;;5001451;28;19916;-79
2023/01/31 16:17:34;;;;;;;;;;;5.50;23.90;;;;;;4999480;28;19933;-82
2023/01/31 16:20:04;;;;;;;;;;;5.50;24.20;;;;;;5006880;28;19913;-76
2023/01/31 16:22:54;;;;;;;;;;;5.60;22.30;;;;;;5019827;28;19910;-77
2023/01/31 16:25:52;;;;;;;;;;;5.60;16.80;;;;;;5007582;28;19913;-76
2023/01/31 16:28:18;;;;;;;;;;;5.50;15.60;;;;;;5010211;28;19910;-74
2023/01/31 16:30:53;;;;;;;;;;;5.50;16.10;;;;;;5003968;28;19917;-73
2023/01/31 16:33:23;;;;;;;;;;;5.60;15.70;;;;;;5002610;28;19933;-73
2023/01/31 16:36:16;;;;;;;;;;;5.60;11.20;;;;;;5013897;28;19909;-82
2023/01/31 16:38:57;;;;;;;;;;;5.60;9.10;;;;;;4999434;28;19953;-81
2023/01/31 16:41:47;;;;;;;;;;;5.70;9.80;;;;;;4979824;28;20008;-80
2023/01/31 16:44:17;;;;;;;;;;;5.70;6.80;;;;;;5017856;28;19921;-77
2023/01/31 16:49:48;;;;;;;;;;;5.70;3.60;;;;;;5011160;28;19932;-76
2023/01/31 16:52:15;;;;;;;;;;;5.70;4.30;;;;;;5013482;28;19914;-75
2023/01/31 16:54:51;;;;;;;;;;;5.70;4.90;;;;;;5012777;28;19965;-75
2023/01/31 16:57:20;;;;;;;;;;;5.80;6.50;;;;;;5010805;28;19913;-75
2023/01/31 16:59:49;;;;;;;;;;;5.80;1.10;;;;;;4997823;28;19953;-75
2023/01/31 17:02:16;;;;;;;;;;;5.90;1.00;;;;;;4999219;28;19936;-74
2023/01/31 17:07:53;;;;;;;;;;;5.90;1.00;;;;;;5006747;28;19976;-79
2023/01/31 17:10:46;;;;;;;;;;;5.80;1.00;;;;;;5012036;28;19916;-77
2023/01/31 17:13:16;;;;;;;;;;;5.90;1.00;;;;;;5016744;28;20547;-77
2023/01/31 17:15:52;;;;;;;;;;;5.90;1.00;;;;;;4997264;28;19924;-78
2023/01/31 17:18:18;;;;;;;;;;;5.90;1.00;;;;;;4996904;28;19921;-77